LYVA weather

Divci Airport
Valjevo, Kolubara, Serbia

Public forecast

Using degrees Celsius for public forecast. Weather courtesy of forecast.io.

Closest aviation weather report (METAR) to Divci Airport

Closest report is Belgrade Nikola Tesla Airport, 33.6 nm (62.2 km) NNE. Retrieved 2019/12/11 02:30 UTC (10 minutes ago):

LYBE 110230Z 30008KT 9999 BKN027 04/01 Q1020 NOSIG

Closest aviation forecast (TAF) to Divci Airport

Closest forecast is Belgrade Nikola Tesla Airport, 33.6 nm (62.2 km) NNE. Retrieved 2019-12-11 00:21 UTC (2 hours ago):

TAF LYBE 102300Z 1100/1124 34009KT 9999 BKN012 BKN027 TX05/1100Z TN01/1123Z TEMPO 1100/1108 5000 RA BKN008 BKN025